Villa Flores, Puerto Rico
Current Conditions -  °F | °C
As of 1:53 AM on Saturday 29 Nov 2014 (Local Time) from TJNR Reporting Station
Broken Clouds Broken Clouds  
Wind Chill: 75°   Ceiling: 7500
Heat Index: 75°   Visibility: 10mi
Dew Point: 73°   Wind: 5mph
Humidity: 94%   Direction: 240°WSW
Pressure: 29.95"   Gusts: NA
Location:  18.2667°N, 65.6476°W
Report Text: TJNR 290553Z AUTO 24004KT 10SM FEW019 SCT042 BKN075 24/23 A2995 RMK AO2 SLP141 60000 T02390228 10250 20233 56016 $
Loading
Personal Weather Stations






























Interactive Weather Map New forecast layout! Learn more

10-Day Weather Forecast

Advertisements
Track Severe Weather on mobile